Hilversum, Netherlands
Current Conditions -  °F | °C
As of 7:55 PM on Tuesday 27 Jan 2015 (Local Time) from EHAM Reporting Station
Few Clouds Few Clouds  
Wind Chill: 34°   Ceiling: Unl
Heat Index: 39°   Visibility: 6mi
Dew Point: 37°   Wind: 8mph
Humidity: 93%   Direction: 210°SSW
Pressure: 30.18"   Gusts: NA
Location:  52.23°N, 5.16°E
Report Text: EHAM 271855Z 21007KT 9999 FEW012 04/03 Q1022 NOSIG
Loading
Personal Weather Stations






























Interactive Weather Map New forecast layout! Learn more

10-Day Weather Forecast

Advertisements
Track Severe Weather on mobile